sensor_id;sensor_type;location;lat;lon;timestamp;P1;durP1;ratioP1;P2;durP2;ratioP2
5345;SDS011;2695;49.444;11.054;2022-12-18T00:02:23;65.77;;;33.23;;
5345;SDS011;2695;49.444;11.054;2022-12-18T00:04:51;70.73;;;33.70;;
5345;SDS011;2695;49.444;11.054;2022-12-18T00:07:21;84.60;;;36.60;;
5345;SDS011;2695;49.444;11.054;2022-12-18T00:09:49;72.53;;;33.83;;
5345;SDS011;2695;49.444;11.054;2022-12-18T00:12:19;69.37;;;35.30;;
5345;SDS011;2695;49.444;11.054;2022-12-18T00:14:47;69.40;;;33.60;;
5345;SDS011;2695;49.444;11.054;2022-12-18T00:17:15;75.00;;;33.53;;
5345;SDS011;2695;49.444;11.054;2022-12-18T00:19:43;73.73;;;32.70;;
5345;SDS011;2695;49.444;11.054;2022-12-18T00:22:11;65.83;;;31.20;;
5345;SDS011;2695;49.444;11.054;2022-12-18T00:24:39;79.07;;;34.50;;
5345;SDS011;2695;49.444;11.054;2022-12-18T00:27:07;72.43;;;33.37;;
5345;SDS011;2695;49.444;11.054;2022-12-18T00:29:39;68.47;;;31.83;;
5345;SDS011;2695;49.444;11.054;2022-12-18T00:32:07;69.73;;;33.50;;
5345;SDS011;2695;49.444;11.054;2022-12-18T00:34:35;76.67;;;33.30;;
5345;SDS011;2695;49.444;11.054;2022-12-18T00:37:03;65.07;;;31.70;;
5345;SDS011;2695;49.444;11.054;2022-12-18T00:39:31;64.40;;;31.83;;
5345;SDS011;2695;49.444;11.054;2022-12-18T00:41:59;66.70;;;33.47;;
5345;SDS011;2695;49.444;11.054;2022-12-18T00:44:46;63.33;;;28.73;;
5345;SDS011;2695;49.444;11.054;2022-12-18T00:47:14;65.97;;;28.87;;
5345;SDS011;2695;49.444;11.054;2022-12-18T00:49:42;59.13;;;29.40;;
5345;SDS011;2695;49.444;11.054;2022-12-18T00:52:11;61.80;;;28.77;;
5345;SDS011;2695;49.444;11.054;2022-12-18T00:54:39;61.40;;;28.27;;
5345;SDS011;2695;49.444;11.054;2022-12-18T00:57:07;52.67;;;26.40;;
5345;SDS011;2695;49.444;11.054;2022-12-18T00:59:35;52.60;;;27.23;;
5345;SDS011;2695;49.444;11.054;2022-12-18T01:02:04;52.63;;;25.50;;
5345;SDS011;2695;49.444;11.054;2022-12-18T01:04:33;63.23;;;28.03;;
5345;SDS011;2695;49.444;11.054;2022-12-18T01:07:01;50.00;;;25.00;;
5345;SDS011;2695;49.444;11.054;2022-12-18T01:09:30;44.73;;;23.40;;
5345;SDS011;2695;49.444;11.054;2022-12-18T01:11:58;49.20;;;24.07;;
5345;SDS011;2695;49.444;11.054;2022-12-18T01:14:26;60.37;;;22.87;;
5345;SDS011;2695;49.444;11.054;2022-12-18T01:16:54;45.50;;;21.73;;
5345;SDS011;2695;49.444;11.054;2022-12-18T01:19:23;48.67;;;22.97;;
5345;SDS011;2695;49.444;11.054;2022-12-18T01:21:51;39.00;;;17.97;;
5345;SDS011;2695;49.444;11.054;2022-12-18T01:24:19;38.43;;;17.80;;
5345;SDS011;2695;49.444;11.054;2022-12-18T01:26:47;36.10;;;18.53;;
5345;SDS011;2695;49.444;11.054;2022-12-18T01:29:15;38.97;;;18.20;;
5345;SDS011;2695;49.444;11.054;2022-12-18T01:31:43;41.33;;;18.97;;
5345;SDS011;2695;49.444;11.054;2022-12-18T01:34:11;41.80;;;19.67;;
5345;SDS011;2695;49.444;11.054;2022-12-18T01:36:40;46.17;;;19.80;;
5345;SDS011;2695;49.444;11.054;2022-12-18T01:39:10;50.13;;;18.73;;
5345;SDS011;2695;49.444;11.054;2022-12-18T01:41:39;39.40;;;18.50;;
5345;SDS011;2695;49.444;11.054;2022-12-18T01:47:21;22.13;;;10.20;;
5345;SDS011;2695;49.444;11.054;2022-12-18T01:49:53;50.20;;;19.57;;
5345;SDS011;2695;49.444;11.054;2022-12-18T01:52:23;41.03;;;17.57;;
5345;SDS011;2695;49.444;11.054;2022-12-18T01:54:53;44.83;;;18.50;;
5345;SDS011;2695;49.444;11.054;2022-12-18T01:57:23;39.50;;;14.33;;
5345;SDS011;2695;49.444;11.054;2022-12-18T01:59:52;38.43;;;17.03;;
5345;SDS011;2695;49.444;11.054;2022-12-18T02:02:24;43.83;;;15.53;;
5345;SDS011;2695;49.444;11.054;2022-12-18T02:04:55;41.77;;;14.90;;
5345;SDS011;2695;49.444;11.054;2022-12-18T02:07:26;43.30;;;19.67;;
5345;SDS011;2695;49.444;11.054;2022-12-18T02:10:06;32.90;;;13.23;;
5345;SDS011;2695;49.444;11.054;2022-12-18T02:12:42;36.13;;;16.13;;
5345;SDS011;2695;49.444;11.054;2022-12-18T02:15:17;35.83;;;15.90;;
5345;SDS011;2695;49.444;11.054;2022-12-18T02:17:52;44.80;;;16.63;;
5345;SDS011;2695;49.444;11.054;2022-12-18T02:20:26;39.17;;;18.10;;
5345;SDS011;2695;49.444;11.054;2022-12-18T02:23:06;48.07;;;17.97;;
5345;SDS011;2695;49.444;11.054;2022-12-18T02:25:54;39.90;;;15.10;;
5345;SDS011;2695;49.444;11.054;2022-12-18T02:28:36;51.00;;;19.53;;
5345;SDS011;2695;49.444;11.054;2022-12-18T02:31:07;38.63;;;15.83;;
5345;SDS011;2695;49.444;11.054;2022-12-18T02:33:39;43.93;;;17.93;;
5345;SDS011;2695;49.444;11.054;2022-12-18T02:36:09;45.00;;;18.90;;
5345;SDS011;2695;49.444;11.054;2022-12-18T02:38:41;38.73;;;16.83;;
5345;SDS011;2695;49.444;11.054;2022-12-18T02:41:11;39.73;;;16.40;;
5345;SDS011;2695;49.444;11.054;2022-12-18T02:43:45;40.60;;;16.10;;
5345;SDS011;2695;49.444;11.054;2022-12-18T02:46:25;34.67;;;15.10;;
5345;SDS011;2695;49.444;11.054;2022-12-18T02:49:01;44.10;;;15.37;;
5345;SDS011;2695;49.444;11.054;2022-12-18T02:51:40;32.77;;;13.47;;
5345;SDS011;2695;49.444;11.054;2022-12-18T02:54:20;46.57;;;17.57;;
5345;SDS011;2695;49.444;11.054;2022-12-18T02:56:54;36.10;;;15.00;;
5345;SDS011;2695;49.444;11.054;2022-12-18T02:59:26;30.63;;;13.27;;
5345;SDS011;2695;49.444;11.054;2022-12-18T03:02:02;36.67;;;14.00;;
5345;SDS011;2695;49.444;11.054;2022-12-18T03:04:43;44.67;;;17.60;;
5345;SDS011;2695;49.444;11.054;2022-12-18T03:07:16;41.10;;;15.30;;
5345;SDS011;2695;49.444;11.054;2022-12-18T03:09:50;38.37;;;16.10;;
5345;SDS011;2695;49.444;11.054;2022-12-18T03:12:22;44.80;;;15.80;;
5345;SDS011;2695;49.444;11.054;2022-12-18T03:14:56;42.00;;;16.50;;
5345;SDS011;2695;49.444;11.054;2022-12-18T03:17:28;39.10;;;16.40;;
5345;SDS011;2695;49.444;11.054;2022-12-18T03:20:03;23.40;;;10.23;;
5345;SDS011;2695;49.444;11.054;2022-12-18T03:22:35;39.27;;;14.90;;
5345;SDS011;2695;49.444;11.054;2022-12-18T03:25:06;26.17;;;10.53;;
5345;SDS011;2695;49.444;11.054;2022-12-18T03:27:40;38.93;;;16.70;;
5345;SDS011;2695;49.444;11.054;2022-12-18T03:30:12;45.23;;;19.10;;
5345;SDS011;2695;49.444;11.054;2022-12-18T03:32:43;46.87;;;17.57;;
5345;SDS011;2695;49.444;11.054;2022-12-18T03:35:16;48.97;;;19.73;;
5345;SDS011;2695;49.444;11.054;2022-12-18T03:37:49;29.20;;;12.60;;
5345;SDS011;2695;49.444;11.054;2022-12-18T03:40:17;26.70;;;11.13;;
5345;SDS011;2695;49.444;11.054;2022-12-18T03:42:49;40.67;;;17.43;;
5345;SDS011;2695;49.444;11.054;2022-12-18T03:45:23;31.50;;;11.17;;
5345;SDS011;2695;49.444;11.054;2022-12-18T03:47:58;39.93;;;16.30;;
5345;SDS011;2695;49.444;11.054;2022-12-18T03:50:32;39.20;;;16.20;;
5345;SDS011;2695;49.444;11.054;2022-12-18T03:53:09;44.10;;;17.93;;
5345;SDS011;2695;49.444;11.054;2022-12-18T03:55:44;39.63;;;15.87;;
5345;SDS011;2695;49.444;11.054;2022-12-18T03:58:15;40.67;;;14.37;;
5345;SDS011;2695;49.444;11.054;2022-12-18T04:00:46;37.13;;;15.60;;
5345;SDS011;2695;49.444;11.054;2022-12-18T04:03:17;26.80;;;13.03;;
5345;SDS011;2695;49.444;11.054;2022-12-18T04:05:51;22.03;;;10.57;;
5345;SDS011;2695;49.444;11.054;2022-12-18T04:08:21;32.00;;;13.03;;
5345;SDS011;2695;49.444;11.054;2022-12-18T04:10:50;28.67;;;13.03;;
5345;SDS011;2695;49.444;11.054;2022-12-18T04:13:23;38.23;;;14.27;;
5345;SDS011;2695;49.444;11.054;2022-12-18T04:15:51;30.20;;;13.80;;
5345;SDS011;2695;49.444;11.054;2022-12-18T04:18:20;38.33;;;16.43;;
5345;SDS011;2695;49.444;11.054;2022-12-18T04:20:48;27.43;;;8.73;;
5345;SDS011;2695;49.444;11.054;2022-12-18T04:23:16;38.37;;;16.03;;
5345;SDS011;2695;49.444;11.054;2022-12-18T04:25:44;26.13;;;11.23;;
5345;SDS011;2695;49.444;11.054;2022-12-18T04:28:13;21.83;;;10.40;;
5345;SDS011;2695;49.444;11.054;2022-12-18T04:30:43;29.00;;;12.63;;
5345;SDS011;2695;49.444;11.054;2022-12-18T04:33:11;41.53;;;17.23;;
5345;SDS011;2695;49.444;11.054;2022-12-18T04:35:41;35.73;;;13.80;;
5345;SDS011;2695;49.444;11.054;2022-12-18T04:38:09;36.13;;;14.87;;
5345;SDS011;2695;49.444;11.054;2022-12-18T04:40:38;31.93;;;14.23;;
5345;SDS011;2695;49.444;11.054;2022-12-18T04:43:07;35.93;;;16.00;;
5345;SDS011;2695;49.444;11.054;2022-12-18T04:45:35;37.90;;;15.10;;
5345;SDS011;2695;49.444;11.054;2022-12-18T04:48:05;31.90;;;14.17;;
5345;SDS011;2695;49.444;11.054;2022-12-18T04:50:33;36.70;;;17.47;;
5345;SDS011;2695;49.444;11.054;2022-12-18T04:53:01;36.77;;;15.80;;
5345;SDS011;2695;49.444;11.054;2022-12-18T04:55:29;33.80;;;14.80;;
5345;SDS011;2695;49.444;11.054;2022-12-18T04:57:57;33.50;;;14.77;;
5345;SDS011;2695;49.444;11.054;2022-12-18T05:00:25;34.43;;;15.47;;
5345;SDS011;2695;49.444;11.054;2022-12-18T05:02:54;30.17;;;14.93;;
5345;SDS011;2695;49.444;11.054;2022-12-18T05:05:24;34.50;;;15.93;;
5345;SDS011;2695;49.444;11.054;2022-12-18T05:07:52;35.17;;;13.80;;
5345;SDS011;2695;49.444;11.054;2022-12-18T05:10:20;32.77;;;14.97;;
5345;SDS011;2695;49.444;11.054;2022-12-18T05:12:48;33.27;;;14.07;;
5345;SDS011;2695;49.444;11.054;2022-12-18T05:15:28;30.30;;;12.10;;
5345;SDS011;2695;49.444;11.054;2022-12-18T05:17:57;32.90;;;13.97;;
5345;SDS011;2695;49.444;11.054;2022-12-18T05:20:27;39.00;;;16.93;;
5345;SDS011;2695;49.444;11.054;2022-12-18T05:22:55;32.80;;;15.30;;
5345;SDS011;2695;49.444;11.054;2022-12-18T05:25:23;30.57;;;14.40;;
5345;SDS011;2695;49.444;11.054;2022-12-18T05:27:52;35.07;;;14.90;;
5345;SDS011;2695;49.444;11.054;2022-12-18T05:30:20;37.40;;;14.10;;
5345;SDS011;2695;49.444;11.054;2022-12-18T05:32:48;37.17;;;15.13;;
5345;SDS011;2695;49.444;11.054;2022-12-18T05:35:16;24.50;;;12.40;;
5345;SDS011;2695;49.444;11.054;2022-12-18T05:37:46;38.37;;;16.67;;
5345;SDS011;2695;49.444;11.054;2022-12-18T05:40:14;32.60;;;14.40;;
5345;SDS011;2695;49.444;11.054;2022-12-18T05:42:42;32.70;;;14.83;;
5345;SDS011;2695;49.444;11.054;2022-12-18T05:45:10;25.07;;;9.97;;
5345;SDS011;2695;49.444;11.054;2022-12-18T05:47:38;34.47;;;13.80;;
5345;SDS011;2695;49.444;11.054;2022-12-18T05:50:13;42.10;;;14.70;;
5345;SDS011;2695;49.444;11.054;2022-12-18T05:52:41;30.27;;;13.87;;
5345;SDS011;2695;49.444;11.054;2022-12-18T05:55:11;37.97;;;12.60;;
5345;SDS011;2695;49.444;11.054;2022-12-18T05:57:38;29.73;;;14.20;;
5345;SDS011;2695;49.444;11.054;2022-12-18T06:00:07;38.70;;;15.33;;
5345;SDS011;2695;49.444;11.054;2022-12-18T06:02:36;34.27;;;12.87;;
5345;SDS011;2695;49.444;11.054;2022-12-18T06:05:05;43.67;;;17.20;;
5345;SDS011;2695;49.444;11.054;2022-12-18T06:07:33;38.80;;;14.80;;
5345;SDS011;2695;49.444;11.054;2022-12-18T06:10:01;32.70;;;14.20;;
5345;SDS011;2695;49.444;11.054;2022-12-18T06:12:31;29.90;;;13.53;;
5345;SDS011;2695;49.444;11.054;2022-12-18T06:15:00;32.57;;;12.27;;
5345;SDS011;2695;49.444;11.054;2022-12-18T06:17:28;30.40;;;14.03;;
5345;SDS011;2695;49.444;11.054;2022-12-18T06:19:56;30.83;;;14.33;;
5345;SDS011;2695;49.444;11.054;2022-12-18T06:22:24;29.90;;;13.90;;
5345;SDS011;2695;49.444;11.054;2022-12-18T06:24:53;27.93;;;12.90;;
5345;SDS011;2695;49.444;11.054;2022-12-18T06:27:21;30.77;;;12.33;;
5345;SDS011;2695;49.444;11.054;2022-12-18T06:29:50;35.13;;;14.57;;
5345;SDS011;2695;49.444;11.054;2022-12-18T06:32:18;28.67;;;11.77;;
5345;SDS011;2695;49.444;11.054;2022-12-18T06:34:46;34.53;;;15.60;;
5345;SDS011;2695;49.444;11.054;2022-12-18T06:37:14;32.00;;;15.13;;
5345;SDS011;2695;49.444;11.054;2022-12-18T06:39:42;30.67;;;15.20;;
5345;SDS011;2695;49.444;11.054;2022-12-18T06:42:11;35.73;;;14.03;;
5345;SDS011;2695;49.444;11.054;2022-12-18T06:44:39;31.13;;;14.00;;
5345;SDS011;2695;49.444;11.054;2022-12-18T06:47:08;32.40;;;14.43;;
5345;SDS011;2695;49.444;11.054;2022-12-18T06:49:36;39.13;;;15.03;;
5345;SDS011;2695;49.444;11.054;2022-12-18T06:52:04;26.00;;;11.77;;
5345;SDS011;2695;49.444;11.054;2022-12-18T06:54:32;34.87;;;13.67;;
5345;SDS011;2695;49.444;11.054;2022-12-18T06:57:00;34.00;;;13.43;;
5345;SDS011;2695;49.444;11.054;2022-12-18T06:59:28;31.87;;;14.50;;
5345;SDS011;2695;49.444;11.054;2022-12-18T07:01:56;31.80;;;13.77;;
5345;SDS011;2695;49.444;11.054;2022-12-18T07:04:28;28.00;;;13.53;;
5345;SDS011;2695;49.444;11.054;2022-12-18T07:06:56;32.57;;;13.57;;
5345;SDS011;2695;49.444;11.054;2022-12-18T07:09:24;32.80;;;14.73;;
5345;SDS011;2695;49.444;11.054;2022-12-18T07:11:54;35.17;;;14.10;;
5345;SDS011;2695;49.444;11.054;2022-12-18T07:14:23;28.30;;;14.30;;
5345;SDS011;2695;49.444;11.054;2022-12-18T07:16:51;35.07;;;13.80;;
5345;SDS011;2695;49.444;11.054;2022-12-18T07:19:19;32.40;;;14.03;;
5345;SDS011;2695;49.444;11.054;2022-12-18T07:21:51;23.50;;;10.10;;
5345;SDS011;2695;49.444;11.054;2022-12-18T07:24:19;35.17;;;13.97;;
5345;SDS011;2695;49.444;11.054;2022-12-18T07:26:47;29.13;;;12.50;;
5345;SDS011;2695;49.444;11.054;2022-12-18T07:29:15;31.90;;;12.10;;
5345;SDS011;2695;49.444;11.054;2022-12-18T07:31:43;26.47;;;11.20;;
5345;SDS011;2695;49.444;11.054;2022-12-18T07:34:11;19.47;;;7.80;;
5345;SDS011;2695;49.444;11.054;2022-12-18T07:36:40;27.73;;;12.87;;
5345;SDS011;2695;49.444;11.054;2022-12-18T07:39:11;30.80;;;12.80;;
5345;SDS011;2695;49.444;11.054;2022-12-18T07:41:39;28.07;;;13.03;;
5345;SDS011;2695;49.444;11.054;2022-12-18T07:44:12;33.70;;;14.10;;
5345;SDS011;2695;49.444;11.054;2022-12-18T07:46:40;21.73;;;9.20;;
5345;SDS011;2695;49.444;11.054;2022-12-18T07:49:11;37.73;;;14.63;;
5345;SDS011;2695;49.444;11.054;2022-12-18T07:51:39;42.77;;;16.37;;
5345;SDS011;2695;49.444;11.054;2022-12-18T07:54:07;34.23;;;14.33;;
5345;SDS011;2695;49.444;11.054;2022-12-18T07:56:37;31.37;;;14.27;;
5345;SDS011;2695;49.444;11.054;2022-12-18T07:59:23;29.57;;;13.23;;
5345;SDS011;2695;49.444;11.054;2022-12-18T08:05:19;35.97;;;14.23;;
5345;SDS011;2695;49.444;11.054;2022-12-18T08:07:47;35.97;;;14.90;;
5345;SDS011;2695;49.444;11.054;2022-12-18T08:10:15;32.13;;;12.27;;
5345;SDS011;2695;49.444;11.054;2022-12-18T08:12:45;36.00;;;15.83;;
5345;SDS011;2695;49.444;11.054;2022-12-18T08:15:15;33.47;;;14.17;;
5345;SDS011;2695;49.444;11.054;2022-12-18T08:17:43;37.07;;;14.10;;
5345;SDS011;2695;49.444;11.054;2022-12-18T08:20:12;34.00;;;14.47;;
5345;SDS011;2695;49.444;11.054;2022-12-18T08:22:41;37.30;;;15.10;;
5345;SDS011;2695;49.444;11.054;2022-12-18T08:25:09;45.07;;;15.47;;
5345;SDS011;2695;49.444;11.054;2022-12-18T08:27:37;35.10;;;14.90;;
5345;SDS011;2695;49.444;11.054;2022-12-18T08:30:08;30.63;;;13.73;;
5345;SDS011;2695;49.444;11.054;2022-12-18T08:32:37;34.87;;;15.10;;
5345;SDS011;2695;49.444;11.054;2022-12-18T08:35:05;33.40;;;15.23;;
5345;SDS011;2695;49.444;11.054;2022-12-18T08:37:35;33.17;;;13.50;;
5345;SDS011;2695;49.444;11.054;2022-12-18T08:40:03;32.83;;;14.63;;
5345;SDS011;2695;49.444;11.054;2022-12-18T08:42:32;33.70;;;13.70;;
5345;SDS011;2695;49.444;11.054;2022-12-18T08:45:18;34.37;;;14.97;;
5345;SDS011;2695;49.444;11.054;2022-12-18T08:47:46;34.40;;;15.40;;
5345;SDS011;2695;49.444;11.054;2022-12-18T08:50:15;36.53;;;15.13;;
5345;SDS011;2695;49.444;11.054;2022-12-18T08:52:43;30.90;;;16.20;;
5345;SDS011;2695;49.444;11.054;2022-12-18T08:55:12;27.47;;;13.40;;
5345;SDS011;2695;49.444;11.054;2022-12-18T08:57:40;29.80;;;14.07;;
5345;SDS011;2695;49.444;11.054;2022-12-18T09:00:09;23.83;;;12.07;;
5345;SDS011;2695;49.444;11.054;2022-12-18T09:02:41;28.90;;;13.00;;
5345;SDS011;2695;49.444;11.054;2022-12-18T09:05:10;30.90;;;12.73;;
5345;SDS011;2695;49.444;11.054;2022-12-18T09:07:38;32.53;;;13.83;;
5345;SDS011;2695;49.444;11.054;2022-12-18T09:10:07;22.43;;;9.40;;
5345;SDS011;2695;49.444;11.054;2022-12-18T09:12:35;29.50;;;13.30;;
5345;SDS011;2695;49.444;11.054;2022-12-18T09:15:03;32.17;;;14.40;;
5345;SDS011;2695;49.444;11.054;2022-12-18T09:17:32;35.63;;;15.20;;
5345;SDS011;2695;49.444;11.054;2022-12-18T09:20:01;15.43;;;9.17;;
5345;SDS011;2695;49.444;11.054;2022-12-18T09:22:30;22.37;;;9.80;;
5345;SDS011;2695;49.444;11.054;2022-12-18T09:24:58;29.90;;;12.37;;
5345;SDS011;2695;49.444;11.054;2022-12-18T09:27:26;26.10;;;13.00;;
5345;SDS011;2695;49.444;11.054;2022-12-18T09:29:54;20.70;;;10.93;;
5345;SDS011;2695;49.444;11.054;2022-12-18T09:32:22;25.50;;;12.47;;
5345;SDS011;2695;49.444;11.054;2022-12-18T09:34:50;26.53;;;12.23;;
5345;SDS011;2695;49.444;11.054;2022-12-18T09:37:19;33.93;;;13.87;;
5345;SDS011;2695;49.444;11.054;2022-12-18T09:39:47;26.57;;;12.23;;
5345;SDS011;2695;49.444;11.054;2022-12-18T09:42:17;25.90;;;13.77;;
5345;SDS011;2695;49.444;11.054;2022-12-18T09:44:49;19.03;;;8.60;;
5345;SDS011;2695;49.444;11.054;2022-12-18T09:47:20;18.07;;;8.13;;
5345;SDS011;2695;49.444;11.054;2022-12-18T09:49:57;18.87;;;9.90;;
5345;SDS011;2695;49.444;11.054;2022-12-18T09:52:30;25.40;;;12.80;;
5345;SDS011;2695;49.444;11.054;2022-12-18T09:55:05;26.27;;;10.83;;
5345;SDS011;2695;49.444;11.054;2022-12-18T09:57:49;29.53;;;11.13;;
5345;SDS011;2695;49.444;11.054;2022-12-18T10:00:21;21.33;;;9.30;;
5345;SDS011;2695;49.444;11.054;2022-12-18T10:02:51;22.90;;;11.10;;
5345;SDS011;2695;49.444;11.054;2022-12-18T10:05:26;23.50;;;12.27;;
5345;SDS011;2695;49.444;11.054;2022-12-18T10:08:04;24.53;;;12.07;;
5345;SDS011;2695;49.444;11.054;2022-12-18T10:10:39;28.70;;;13.20;;
5345;SDS011;2695;49.444;11.054;2022-12-18T10:13:15;27.13;;;12.73;;
5345;SDS011;2695;49.444;11.054;2022-12-18T10:15:54;24.50;;;11.90;;
5345;SDS011;2695;49.444;11.054;2022-12-18T10:18:34;25.30;;;12.07;;
5345;SDS011;2695;49.444;11.054;2022-12-18T10:21:12;14.67;;;8.10;;
5345;SDS011;2695;49.444;11.054;2022-12-18T10:23:47;25.50;;;11.23;;
5345;SDS011;2695;49.444;11.054;2022-12-18T10:26:26;24.83;;;11.63;;
5345;SDS011;2695;49.444;11.054;2022-12-18T10:28:54;18.47;;;8.87;;
5345;SDS011;2695;49.444;11.054;2022-12-18T10:31:30;35.80;;;13.30;;
5345;SDS011;2695;49.444;11.054;2022-12-18T10:33:58;24.97;;;12.50;;
5345;SDS011;2695;49.444;11.054;2022-12-18T10:36:26;26.50;;;11.93;;
5345;SDS011;2695;49.444;11.054;2022-12-18T10:38:56;26.23;;;12.50;;
5345;SDS011;2695;49.444;11.054;2022-12-18T10:41:43;23.70;;;11.80;;
5345;SDS011;2695;49.444;11.054;2022-12-18T10:44:12;16.80;;;9.03;;
5345;SDS011;2695;49.444;11.054;2022-12-18T10:46:45;17.97;;;9.40;;
5345;SDS011;2695;49.444;11.054;2022-12-18T10:49:19;24.27;;;12.50;;
5345;SDS011;2695;49.444;11.054;2022-12-18T10:52:03;16.33;;;9.33;;
5345;SDS011;2695;49.444;11.054;2022-12-18T10:54:46;24.43;;;11.57;;
5345;SDS011;2695;49.444;11.054;2022-12-18T10:57:29;23.60;;;11.47;;
5345;SDS011;2695;49.444;11.054;2022-12-18T11:02:51;22.03;;;9.80;;
5345;SDS011;2695;49.444;11.054;2022-12-18T11:05:24;26.67;;;11.30;;
5345;SDS011;2695;49.444;11.054;2022-12-18T11:07:54;26.00;;;11.47;;
5345;SDS011;2695;49.444;11.054;2022-12-18T11:10:25;24.33;;;11.37;;
5345;SDS011;2695;49.444;11.054;2022-12-18T11:13:08;22.57;;;12.00;;
5345;SDS011;2695;49.444;11.054;2022-12-18T11:15:43;24.47;;;11.40;;
5345;SDS011;2695;49.444;11.054;2022-12-18T11:18:19;27.40;;;12.63;;
5345;SDS011;2695;49.444;11.054;2022-12-18T11:20:52;25.50;;;12.10;;
5345;SDS011;2695;49.444;11.054;2022-12-18T11:23:24;25.77;;;10.87;;
5345;SDS011;2695;49.444;11.054;2022-12-18T11:25:55;27.13;;;12.93;;
5345;SDS011;2695;49.444;11.054;2022-12-18T11:28:25;24.87;;;11.10;;
5345;SDS011;2695;49.444;11.054;2022-12-18T11:31:09;29.70;;;12.83;;
5345;SDS011;2695;49.444;11.054;2022-12-18T11:33:46;22.50;;;11.67;;
5345;SDS011;2695;49.444;11.054;2022-12-18T11:36:39;31.30;;;11.70;;
5345;SDS011;2695;49.444;11.054;2022-12-18T11:39:15;30.33;;;13.20;;
5345;SDS011;2695;49.444;11.054;2022-12-18T11:41:50;16.63;;;7.73;;
5345;SDS011;2695;49.444;11.054;2022-12-18T11:44:41;18.47;;;8.83;;
5345;SDS011;2695;49.444;11.054;2022-12-18T11:47:18;24.07;;;10.43;;
5345;SDS011;2695;49.444;11.054;2022-12-18T11:49:53;31.20;;;13.23;;
5345;SDS011;2695;49.444;11.054;2022-12-18T11:52:24;19.17;;;10.10;;
5345;SDS011;2695;49.444;11.054;2022-12-18T11:54:58;24.97;;;11.20;;
5345;SDS011;2695;49.444;11.054;2022-12-18T11:57:34;25.33;;;11.67;;
5345;SDS011;2695;49.444;11.054;2022-12-18T12:00:10;32.00;;;11.83;;
5345;SDS011;2695;49.444;11.054;2022-12-18T12:02:56;19.80;;;9.30;;
5345;SDS011;2695;49.444;11.054;2022-12-18T12:05:51;31.87;;;12.17;;
5345;SDS011;2695;49.444;11.054;2022-12-18T12:08:31;24.70;;;10.40;;
5345;SDS011;2695;49.444;11.054;2022-12-18T12:11:10;26.47;;;12.00;;
5345;SDS011;2695;49.444;11.054;2022-12-18T12:13:49;23.63;;;11.27;;
5345;SDS011;2695;49.444;11.054;2022-12-18T12:16:24;12.63;;;6.90;;
5345;SDS011;2695;49.444;11.054;2022-12-18T12:19:01;23.87;;;11.17;;
5345;SDS011;2695;49.444;11.054;2022-12-18T12:21:52;26.57;;;12.83;;
5345;SDS011;2695;49.444;11.054;2022-12-18T12:24:28;28.40;;;10.83;;
5345;SDS011;2695;49.444;11.054;2022-12-18T12:27:07;18.67;;;9.00;;
5345;SDS011;2695;49.444;11.054;2022-12-18T12:29:50;27.37;;;12.40;;
5345;SDS011;2695;49.444;11.054;2022-12-18T12:32:32;23.97;;;10.90;;
5345;SDS011;2695;49.444;11.054;2022-12-18T12:35:17;28.53;;;11.77;;
5345;SDS011;2695;49.444;11.054;2022-12-18T12:37:58;24.90;;;9.53;;
5345;SDS011;2695;49.444;11.054;2022-12-18T12:40:36;23.53;;;10.37;;
5345;SDS011;2695;49.444;11.054;2022-12-18T12:43:27;23.40;;;10.80;;
5345;SDS011;2695;49.444;11.054;2022-12-18T12:46:03;18.73;;;9.80;;
5345;SDS011;2695;49.444;11.054;2022-12-18T12:48:35;21.67;;;9.23;;
5345;SDS011;2695;49.444;11.054;2022-12-18T12:51:10;27.10;;;12.40;;
5345;SDS011;2695;49.444;11.054;2022-12-18T12:53:46;26.47;;;12.47;;
5345;SDS011;2695;49.444;11.054;2022-12-18T12:56:16;21.70;;;10.23;;
5345;SDS011;2695;49.444;11.054;2022-12-18T12:58:52;24.63;;;10.10;;
5345;SDS011;2695;49.444;11.054;2022-12-18T13:01:34;27.40;;;12.63;;
5345;SDS011;2695;49.444;11.054;2022-12-18T13:04:12;21.27;;;10.33;;
5345;SDS011;2695;49.444;11.054;2022-12-18T13:06:52;28.23;;;12.57;;
5345;SDS011;2695;49.444;11.054;2022-12-18T13:09:29;15.23;;;8.53;;
5345;SDS011;2695;49.444;11.054;2022-12-18T13:12:02;19.23;;;9.10;;
5345;SDS011;2695;49.444;11.054;2022-12-18T13:14:49;24.43;;;10.90;;
5345;SDS011;2695;49.444;11.054;2022-12-18T13:17:29;28.30;;;11.13;;
5345;SDS011;2695;49.444;11.054;2022-12-18T13:20:11;27.53;;;10.93;;
5345;SDS011;2695;49.444;11.054;2022-12-18T13:22:43;27.97;;;12.67;;
5345;SDS011;2695;49.444;11.054;2022-12-18T13:25:29;23.60;;;8.93;;
5345;SDS011;2695;49.444;11.054;2022-12-18T13:28:07;22.23;;;11.20;;
5345;SDS011;2695;49.444;11.054;2022-12-18T13:30:55;20.83;;;9.07;;
5345;SDS011;2695;49.444;11.054;2022-12-18T13:33:39;13.57;;;7.93;;
5345;SDS011;2695;49.444;11.054;2022-12-18T13:36:30;23.27;;;11.60;;
5345;SDS011;2695;49.444;11.054;2022-12-18T13:39:22;22.93;;;11.47;;
5345;SDS011;2695;49.444;11.054;2022-12-18T13:42:31;30.93;;;14.63;;
5345;SDS011;2695;49.444;11.054;2022-12-18T13:45:43;27.20;;;12.00;;
5345;SDS011;2695;49.444;11.054;2022-12-18T13:48:17;22.50;;;10.10;;
5345;SDS011;2695;49.444;11.054;2022-12-18T13:50:56;28.00;;;11.87;;
5345;SDS011;2695;49.444;11.054;2022-12-18T13:53:30;28.53;;;12.57;;
5345;SDS011;2695;49.444;11.054;2022-12-18T13:56:07;27.67;;;12.90;;
5345;SDS011;2695;49.444;11.054;2022-12-18T13:58:35;21.07;;;9.87;;
5345;SDS011;2695;49.444;11.054;2022-12-18T14:01:04;25.47;;;11.63;;
5345;SDS011;2695;49.444;11.054;2022-12-18T14:03:33;28.13;;;13.23;;
5345;SDS011;2695;49.444;11.054;2022-12-18T14:06:04;27.20;;;11.70;;
5345;SDS011;2695;49.444;11.054;2022-12-18T14:08:36;29.03;;;13.10;;
5345;SDS011;2695;49.444;11.054;2022-12-18T14:11:07;25.13;;;11.27;;
5345;SDS011;2695;49.444;11.054;2022-12-18T14:13:48;26.93;;;11.83;;
5345;SDS011;2695;49.444;11.054;2022-12-18T14:16:17;14.90;;;6.20;;
5345;SDS011;2695;49.444;11.054;2022-12-18T14:18:46;28.30;;;11.90;;
5345;SDS011;2695;49.444;11.054;2022-12-18T14:21:24;21.87;;;11.00;;
5345;SDS011;2695;49.444;11.054;2022-12-18T14:24:05;23.73;;;11.07;;
5345;SDS011;2695;49.444;11.054;2022-12-18T14:26:43;18.43;;;9.40;;
5345;SDS011;2695;49.444;11.054;2022-12-18T14:29:20;31.50;;;10.93;;
5345;SDS011;2695;49.444;11.054;2022-12-18T14:32:07;17.37;;;8.70;;
5345;SDS011;2695;49.444;11.054;2022-12-18T14:34:43;24.03;;;11.00;;
5345;SDS011;2695;49.444;11.054;2022-12-18T14:37:14;27.30;;;11.77;;
5345;SDS011;2695;49.444;11.054;2022-12-18T14:39:56;17.30;;;8.50;;
5345;SDS011;2695;49.444;11.054;2022-12-18T14:42:25;19.77;;;9.40;;
5345;SDS011;2695;49.444;11.054;2022-12-18T14:48:07;27.60;;;11.80;;
5345;SDS011;2695;49.444;11.054;2022-12-18T14:50:54;22.27;;;10.23;;
5345;SDS011;2695;49.444;11.054;2022-12-18T14:53:30;14.37;;;6.47;;
5345;SDS011;2695;49.444;11.054;2022-12-18T14:56:04;15.07;;;8.43;;
5345;SDS011;2695;49.444;11.054;2022-12-18T14:58:45;16.07;;;8.73;;
5345;SDS011;2695;49.444;11.054;2022-12-18T15:01:19;24.17;;;10.70;;
5345;SDS011;2695;49.444;11.054;2022-12-18T15:03:51;27.40;;;12.50;;
5345;SDS011;2695;49.444;11.054;2022-12-18T15:06:27;28.70;;;9.93;;
5345;SDS011;2695;49.444;11.054;2022-12-18T15:09:00;19.33;;;10.40;;
5345;SDS011;2695;49.444;11.054;2022-12-18T15:11:35;17.37;;;8.07;;
5345;SDS011;2695;49.444;11.054;2022-12-18T15:14:21;22.60;;;10.57;;
5345;SDS011;2695;49.444;11.054;2022-12-18T15:17:03;28.00;;;11.90;;
5345;SDS011;2695;49.444;11.054;2022-12-18T15:19:37;23.37;;;11.13;;
5345;SDS011;2695;49.444;11.054;2022-12-18T15:22:18;29.43;;;10.00;;